4NA3 weather

Public forecast

Using degrees Fahrenheit for public forecast. Weather courtesy of forecast.io.

Closest aviation weather report (METAR) to Peterson Airstrip

Closest report is Minot Air Force Base, 26.6 nm (49.3 km) S. Retrieved 2020/08/13 07:56 UTC (10 minutes ago):

KMIB 130756Z 13013KT 10SM OVC007 20/19 A2977 RMK AO2A SLP076 T02030188

Closest aviation forecast (TAF) to Peterson Airstrip

Forecast is more than 6 hours old.

Closest forecast is Minot Air Force Base, 26.6 nm (49.3 km) S. Retrieved 2020-08-13 01:06 UTC (7 hours ago):

TAF KMIB 130058Z 1301/1407 15012KT 9999 SCT040 QNH2973INS BECMG 1303/1304 15012KT 9999 BKN040 QNH2970INS BECMG 1304/1305 16015G20KT 9000 -SHRA BKN040 QNH2970INS TEMPO 1305/1311 18025G35KT 8000 -TSRA OVC050CB BECMG 1310/1311 32015G20KT 9000 -SHRA BKN050 QNH2971INS BECMG 1314/1315 32015G20KT 9999 NSW SCT050 QNH2976INS BECMG 1316/1317 34009KT 9999 FEW050 QNH2982INS BECMG 1323/1324 VRB06KT 9999 BKN150 QNH2980INS TX29/1321Z TN21/1312Z